createdAt,value
2018-02-15T00:00:12.151Z,101011.94
2018-02-15T00:02:39.649Z,101014.31
2018-02-15T00:05:07.146Z,101011.38
2018-02-15T00:07:34.640Z,101012.47
2018-02-15T00:10:02.144Z,101018.02
2018-02-15T00:12:29.638Z,101020.14
2018-02-15T00:14:57.143Z,101019.87
2018-02-15T00:17:24.630Z,101011.48
2018-02-15T00:19:52.343Z,101008.48
2018-02-15T00:22:19.874Z,101013.30
2018-02-15T00:24:47.374Z,101009.03
2018-02-15T00:27:14.880Z,100999.63
2018-02-15T00:29:42.397Z,100992.15
2018-02-15T00:32:09.888Z,100992.69
2018-02-15T00:34:37.367Z,100998.55
2018-02-15T00:37:04.877Z,100983.27
2018-02-15T00:39:32.382Z,100980.60
2018-02-15T00:41:59.890Z,100980.59
2018-02-15T00:44:27.369Z,100974.19
2018-02-15T00:46:54.862Z,100977.02
2018-02-15T00:49:22.358Z,100980.31
2018-02-15T00:51:49.852Z,100981.45
2018-02-15T00:54:17.335Z,100993.33
2018-02-15T00:56:44.844Z,100994.38
2018-02-15T00:59:12.322Z,100993.19
2018-02-15T01:01:39.804Z,100983.06
2018-02-15T01:04:07.302Z,100981.78
2018-02-15T01:06:34.788Z,100981.11
2018-02-15T01:09:02.305Z,100983.74
2018-02-15T01:11:29.793Z,100982.21
2018-02-15T01:13:57.292Z,100980.33
2018-02-15T01:16:26.789Z,100982.14
2018-02-15T01:18:54.283Z,100976.75
2018-02-15T01:21:21.764Z,100980.20
2018-02-15T01:23:49.264Z,100971.37
2018-02-15T01:26:16.768Z,100967.17
2018-02-15T01:28:44.264Z,100967.73
2018-02-15T01:31:11.736Z,100964.64
2018-02-15T01:33:39.237Z,100961.70
2018-02-15T01:36:06.724Z,100962.39
2018-02-15T01:38:34.226Z,100960.79
2018-02-15T01:43:35.429Z,100938.95
2018-02-15T01:46:02.901Z,100944.09
2018-02-15T01:48:30.376Z,100943.62
2018-02-15T01:50:57.885Z,100931.53
2018-02-15T01:53:25.380Z,100927.00
2018-02-15T01:55:52.876Z,100937.80
2018-02-15T01:58:20.369Z,100927.08
2018-02-15T02:00:47.876Z,100927.89
2018-02-15T02:03:15.385Z,100906.04
2018-02-15T02:05:42.874Z,100894.03
2018-02-15T02:08:10.366Z,100884.80
2018-02-15T02:10:37.837Z,100878.91
2018-02-15T02:13:05.326Z,100891.85
2018-02-15T02:15:32.840Z,100892.25
2018-02-15T02:18:00.329Z,100900.10
2018-02-15T02:20:27.821Z,100896.30
2018-02-15T02:22:55.425Z,100899.60
2018-02-15T02:25:22.904Z,100890.02
2018-02-15T02:27:50.402Z,100896.67
2018-02-15T02:30:18.324Z,100888.69
2018-02-15T02:32:46.794Z,100881.92
2018-02-15T02:35:14.293Z,100884.02
2018-02-15T02:37:41.806Z,100880.60
2018-02-15T02:40:09.299Z,100871.37
2018-02-15T02:42:36.796Z,100862.50
2018-02-15T02:45:04.309Z,100856.62
2018-02-15T02:47:31.796Z,100846.50
2018-02-15T02:49:59.308Z,100853.61
2018-02-15T02:52:26.794Z,100856.08
2018-02-15T02:54:54.274Z,100855.36
2018-02-15T02:57:21.777Z,100861.65
2018-02-15T02:59:49.257Z,100850.33
2018-02-15T03:02:16.780Z,100849.07
2018-02-15T03:04:44.285Z,100845.72
2018-02-15T03:07:11.794Z,100850.48
2018-02-15T03:09:39.301Z,100850.41
2018-02-15T03:12:06.790Z,100858.39
2018-02-15T03:14:34.350Z,100846.44
2018-02-15T03:17:01.842Z,100841.25
2018-02-15T03:19:29.328Z,100848.18
2018-02-15T03:21:56.830Z,100836.07
2018-02-15T03:24:24.328Z,100820.65
2018-02-15T03:26:51.811Z,100819.66
2018-02-15T03:29:19.303Z,100822.82
2018-02-15T03:31:46.792Z,100830.44
2018-02-15T03:34:14.284Z,100822.39
2018-02-15T03:36:41.783Z,100827.41
2018-02-15T03:39:09.284Z,100824.89
2018-02-15T03:41:36.774Z,100828.20
2018-02-15T03:44:04.276Z,100820.09
2018-02-15T03:46:31.768Z,100813.94
2018-02-15T03:48:59.295Z,100817.59
2018-02-15T03:51:26.815Z,100812.73
2018-02-15T03:53:54.315Z,100807.85
2018-02-15T03:56:21.816Z,100805.00
2018-02-15T03:58:49.317Z,100801.64
2018-02-15T04:01:16.809Z,100799.06
2018-02-15T04:03:44.329Z,100791.50
2018-02-15T04:06:11.824Z,100789.83
2018-02-15T04:08:39.301Z,100790.74
2018-02-15T04:11:06.825Z,100786.20
2018-02-15T04:13:34.317Z,100792.07
2018-02-15T04:16:01.831Z,100786.98
2018-02-15T04:18:29.301Z,100781.11
2018-02-15T04:20:56.793Z,100792.41
2018-02-15T04:23:24.306Z,100805.89
2018-02-15T04:25:51.781Z,100799.53
2018-02-15T04:28:19.274Z,100810.92
2018-02-15T04:30:46.776Z,100810.53
2018-02-15T04:33:14.325Z,100818.95
2018-02-15T04:35:41.808Z,100813.99
2018-02-15T04:38:09.312Z,100812.25
2018-02-15T04:40:36.812Z,100804.30
2018-02-15T04:43:04.300Z,100790.80
2018-02-15T04:45:31.789Z,100790.41
2018-02-15T04:47:59.349Z,100783.73
2018-02-15T04:50:26.818Z,100798.06
2018-02-15T04:52:54.305Z,100798.09
2018-02-15T04:55:21.800Z,100801.08
2018-02-15T04:57:49.344Z,100799.39
2018-02-15T05:00:16.866Z,100801.91
2018-02-15T05:02:44.364Z,100805.61
2018-02-15T05:05:11.884Z,100812.39
2018-02-15T05:07:39.361Z,100812.05
2018-02-15T05:10:06.864Z,100808.21
2018-02-15T05:12:34.336Z,100789.19
2018-02-15T05:15:01.860Z,100794.93
2018-02-15T05:17:29.367Z,100794.14
2018-02-15T05:19:56.835Z,100786.53
2018-02-15T05:22:24.351Z,100784.57
2018-02-15T05:24:51.830Z,100785.48
2018-02-15T05:27:19.332Z,100789.20
2018-02-15T05:29:48.396Z,100787.59
2018-02-15T05:32:15.857Z,100781.41
2018-02-15T05:34:43.338Z,100770.51
2018-02-15T05:37:10.813Z,100757.92
2018-02-15T05:39:38.309Z,100755.33
2018-02-15T05:42:05.793Z,100767.95
2018-02-15T05:44:33.262Z,100757.50
2018-02-15T05:47:00.726Z,100762.80
2018-02-15T05:49:28.232Z,100755.61
2018-02-15T05:51:55.708Z,100759.41
2018-02-15T05:54:23.194Z,100760.16
2018-02-15T05:56:50.692Z,100754.72
2018-02-15T05:59:18.680Z,100759.33
2018-02-15T06:01:46.184Z,100754.22
2018-02-15T06:04:13.689Z,100752.91
2018-02-15T06:06:41.202Z,100771.30
2018-02-15T06:09:08.737Z,100749.48
2018-02-15T06:11:36.272Z,100754.38
2018-02-15T06:14:03.788Z,100758.16
2018-02-15T06:16:31.312Z,100752.66
2018-02-15T06:18:58.815Z,100744.69
2018-02-15T06:21:26.324Z,100728.37
2018-02-15T06:23:53.846Z,100737.98
2018-02-15T06:26:21.347Z,100740.12
2018-02-15T06:28:48.876Z,100726.30
2018-02-15T06:31:16.382Z,100724.27
2018-02-15T06:33:43.949Z,100730.69
2018-02-15T06:36:11.489Z,100719.43
2018-02-15T06:38:39.030Z,100725.72
2018-02-15T06:41:06.534Z,100725.50
2018-02-15T06:43:34.069Z,100728.95
2018-02-15T06:46:01.605Z,100731.42
2018-02-15T06:48:29.197Z,100715.13
2018-02-15T06:50:56.731Z,100704.66
2018-02-15T06:53:24.249Z,100703.09
2018-02-15T06:55:51.758Z,100690.94
2018-02-15T06:58:19.265Z,100690.63
2018-02-15T07:00:46.801Z,100684.28
2018-02-15T07:03:14.332Z,100684.33
2018-02-15T07:05:41.855Z,100662.65
2018-02-15T07:08:09.374Z,100679.91
2018-02-15T07:10:36.910Z,100687.11
2018-02-15T07:13:05.529Z,100674.94
2018-02-15T07:15:33.038Z,100680.13
2018-02-15T07:18:00.573Z,100661.70
2018-02-15T07:20:28.094Z,100694.05
2018-02-15T07:22:55.606Z,100672.78
2018-02-15T07:25:23.128Z,100677.92
2018-02-15T07:27:50.781Z,100690.89
2018-02-15T07:30:18.305Z,100680.98
2018-02-15T07:32:45.819Z,100687.94
2018-02-15T07:35:13.361Z,100697.18
2018-02-15T07:37:40.940Z,100682.08
2018-02-15T07:40:08.468Z,100685.89
2018-02-15T07:42:36.015Z,100681.22
2018-02-15T07:45:04.022Z,100690.03
2018-02-15T07:47:31.522Z,100680.39
2018-02-15T07:49:59.048Z,100672.47
2018-02-15T07:52:27.128Z,100698.55
2018-02-15T07:54:54.635Z,100683.97
2018-02-15T07:57:22.170Z,100697.41
2018-02-15T07:59:49.711Z,100690.81
2018-02-15T08:02:17.234Z,100691.97
2018-02-15T08:04:44.761Z,100685.40
2018-02-15T08:07:12.274Z,100701.47
2018-02-15T08:09:39.766Z,100688.30
2018-02-15T08:12:07.292Z,100687.77
2018-02-15T08:14:34.853Z,100685.05
2018-02-15T08:17:02.364Z,100689.00
2018-02-15T08:19:29.889Z,100691.34
2018-02-15T08:21:57.443Z,100684.64
2018-02-15T08:24:25.080Z,100695.66
2018-02-15T08:26:52.600Z,100696.80
2018-02-15T08:29:20.115Z,100685.41
2018-02-15T08:31:47.660Z,100689.42
2018-02-15T08:34:15.201Z,100680.83
2018-02-15T08:36:42.734Z,100663.92
2018-02-15T08:39:10.271Z,100652.85
2018-02-15T08:41:37.797Z,100649.70
2018-02-15T08:44:05.320Z,100658.36
2018-02-15T08:46:33.018Z,100657.51
2018-02-15T08:49:00.526Z,100667.53
2018-02-15T08:51:28.082Z,100671.37
2018-02-15T08:53:55.985Z,100682.22
2018-02-15T08:56:23.511Z,100665.84
2018-02-15T08:58:51.057Z,100665.55
2018-02-15T09:01:18.588Z,100666.75
2018-02-15T09:03:46.100Z,100653.54
2018-02-15T09:06:13.637Z,100647.06
2018-02-15T09:08:41.167Z,100648.97
2018-02-15T09:11:08.736Z,100661.63
2018-02-15T09:13:36.295Z,100661.52
2018-02-15T09:16:03.808Z,100661.20
2018-02-15T09:18:31.374Z,100666.88
2018-02-15T09:20:58.875Z,100669.34
2018-02-15T09:23:26.416Z,100673.60
2018-02-15T09:25:53.927Z,100655.70
2018-02-15T09:28:21.470Z,100653.81
2018-02-15T09:30:48.996Z,100657.38
2018-02-15T09:33:16.751Z,100648.78
2018-02-15T09:35:44.283Z,100642.53
2018-02-15T09:38:11.819Z,100637.86
2018-02-15T09:40:39.349Z,100643.89
2018-02-15T09:43:06.886Z,100632.83
2018-02-15T09:45:34.453Z,100648.37
2018-02-15T09:48:01.989Z,100638.33
2018-02-15T09:50:29.489Z,100643.52
2018-02-15T09:52:57.026Z,100656.39
2018-02-15T09:55:24.536Z,100659.02
2018-02-15T09:57:52.040Z,100654.19
2018-02-15T10:00:19.572Z,100659.55
2018-02-15T10:02:47.093Z,100642.06
2018-02-15T10:05:14.654Z,100644.59
2018-02-15T10:07:42.162Z,100642.47
2018-02-15T10:10:09.669Z,100637.70
2018-02-15T10:12:37.197Z,100620.89
2018-02-15T10:15:05.461Z,100625.39
2018-02-15T10:17:32.990Z,100614.11
2018-02-15T10:20:00.526Z,100623.34
2018-02-15T10:22:28.032Z,100615.80
2018-02-15T10:24:55.534Z,100616.36
2018-02-15T10:27:23.061Z,100608.88
2018-02-15T10:29:50.588Z,100602.16
2018-02-15T10:32:18.114Z,100621.64
2018-02-15T10:34:45.622Z,100601.00
2018-02-15T10:37:14.381Z,100590.25
2018-02-15T10:39:41.887Z,100576.05
2018-02-15T10:42:10.013Z,100569.41
2018-02-15T10:44:37.519Z,100579.69
2018-02-15T10:47:05.047Z,100562.82
2018-02-15T10:49:32.594Z,100567.95
2018-02-15T10:52:00.142Z,100558.83
2018-02-15T10:54:27.726Z,100563.50
2018-02-15T10:56:55.273Z,100555.19
2018-02-15T10:59:22.833Z,100559.05
2018-02-15T11:01:55.965Z,100556.86
2018-02-15T11:04:29.075Z,100537.98
2018-02-15T11:06:56.583Z,100539.70
2018-02-15T11:09:24.086Z,100537.64
2018-02-15T11:11:51.605Z,100551.56
2018-02-15T11:14:19.107Z,100538.69
2018-02-15T11:16:46.639Z,100523.58
2018-02-15T11:19:14.148Z,100522.86
2018-02-15T11:21:41.676Z,100530.01
2018-02-15T11:24:09.679Z,100523.02
2018-02-15T11:26:37.190Z,100525.58
2018-02-15T11:29:04.738Z,100532.34
2018-02-15T11:31:32.252Z,100531.62
2018-02-15T11:33:59.766Z,100527.41
2018-02-15T11:36:27.313Z,100520.33
2018-02-15T11:38:54.860Z,100513.67
2018-02-15T11:41:22.405Z,100525.14
2018-02-15T11:43:49.906Z,100520.90
2018-02-15T11:46:17.453Z,100513.92
2018-02-15T11:48:45.117Z,100519.43
2018-02-15T11:51:12.780Z,100510.97
2018-02-15T11:53:40.443Z,100513.53
2018-02-15T11:56:08.013Z,100507.18
2018-02-15T11:58:35.534Z,100508.02
2018-02-15T12:01:03.090Z,100514.69
2018-02-15T12:03:30.649Z,100514.38
2018-02-15T12:05:58.240Z,100516.16
2018-02-15T12:08:25.799Z,100519.88
2018-02-15T12:10:53.313Z,100518.69
2018-02-15T12:13:20.889Z,100513.28
2018-02-15T12:15:48.417Z,100509.98
2018-02-15T12:18:16.026Z,100508.69
2018-02-15T12:20:44.795Z,100505.45
2018-02-15T12:23:12.600Z,100518.50
2018-02-15T12:25:40.176Z,100505.38
2018-02-15T12:28:07.687Z,100502.69
2018-02-15T12:30:35.265Z,100504.76
2018-02-15T12:33:02.795Z,100501.84
2018-02-15T12:35:30.322Z,100490.44
2018-02-15T12:37:57.864Z,100481.53
2018-02-15T12:40:25.693Z,100485.42
2018-02-15T12:42:53.228Z,100486.16
2018-02-15T12:45:20.774Z,100485.74
2018-02-15T12:47:48.312Z,100489.98
2018-02-15T12:50:15.843Z,100492.02
2018-02-15T12:52:43.358Z,100495.29
2018-02-15T12:55:10.895Z,100491.08
2018-02-15T12:57:38.418Z,100493.92
2018-02-15T13:00:05.967Z,100484.97
2018-02-15T13:02:33.507Z,100479.16
2018-02-15T13:05:01.082Z,100480.77
2018-02-15T13:07:28.728Z,100473.22
2018-02-15T13:09:56.258Z,100474.23
2018-02-15T13:12:35.461Z,100492.56
2018-02-15T13:15:03.054Z,100478.98
2018-02-15T13:17:30.556Z,100479.33
2018-02-15T13:20:18.780Z,100475.27
2018-02-15T13:22:49.169Z,100476.92
2018-02-15T13:25:16.680Z,100466.33
2018-02-15T13:27:55.863Z,100472.25
2018-02-15T13:30:23.362Z,100465.83
2018-02-15T13:32:50.879Z,100461.27
2018-02-15T13:35:18.408Z,100458.60
2018-02-15T13:37:45.938Z,100457.19
2018-02-15T13:40:13.456Z,100470.61
2018-02-15T13:42:40.979Z,100474.69
2018-02-15T13:45:08.501Z,100473.73
2018-02-15T13:47:36.029Z,100466.49
2018-02-15T13:50:03.543Z,100462.50
2018-02-15T13:52:32.378Z,100461.62
2018-02-15T13:55:00.749Z,100453.55
2018-02-15T13:57:28.289Z,100455.11
2018-02-15T13:59:55.824Z,100463.81
2018-02-15T14:02:23.371Z,100467.53
2018-02-15T14:04:50.901Z,100464.05
2018-02-15T14:07:18.415Z,100468.30
2018-02-15T14:09:45.951Z,100460.97
2018-02-15T14:12:13.664Z,100467.83
2018-02-15T14:14:41.186Z,100473.24
2018-02-15T14:17:08.717Z,100471.48
2018-02-15T14:19:36.246Z,100484.46
2018-02-15T14:22:03.755Z,100478.57
2018-02-15T14:24:31.470Z,100480.34
2018-02-15T14:26:59.019Z,100481.51
2018-02-15T14:29:26.576Z,100487.40
2018-02-15T14:31:54.093Z,100493.27
2018-02-15T14:34:21.663Z,100486.09
2018-02-15T14:36:49.238Z,100485.29
2018-02-15T14:39:16.787Z,100484.08
2018-02-15T14:41:44.297Z,100479.37
2018-02-15T14:44:11.857Z,100473.02
2018-02-15T14:46:39.392Z,100467.98
2018-02-15T14:49:06.912Z,100462.61
2018-02-15T14:51:34.455Z,100462.47
2018-02-15T14:54:01.981Z,100470.45
2018-02-15T14:56:29.492Z,100464.99
2018-02-15T14:58:56.995Z,100468.30
2018-02-15T15:01:24.536Z,100462.89
2018-02-15T15:03:52.066Z,100464.82
2018-02-15T15:06:19.573Z,100459.81
2018-02-15T15:08:47.117Z,100455.62
2018-02-15T15:11:14.639Z,100458.55
2018-02-15T15:13:42.157Z,100458.61
2018-02-15T15:16:09.691Z,100466.11
2018-02-15T15:18:37.252Z,100474.84
2018-02-15T15:21:05.668Z,100465.70
2018-02-15T15:23:33.208Z,100471.58
2018-02-15T15:26:00.716Z,100472.00
2018-02-15T15:28:29.200Z,100469.05
2018-02-15T15:30:56.720Z,100471.63
2018-02-15T15:33:24.262Z,100462.86
2018-02-15T15:35:51.810Z,100463.23
2018-02-15T15:38:19.424Z,100462.47
2018-02-15T15:40:47.182Z,100463.77
2018-02-15T15:43:14.858Z,100470.50
2018-02-15T15:45:42.397Z,100471.34
2018-02-15T15:48:09.947Z,100468.81
2018-02-15T15:50:37.485Z,100462.14
2018-02-15T15:53:05.022Z,100474.42
2018-02-15T15:55:32.550Z,100470.64
2018-02-15T15:58:00.114Z,100473.58
2018-02-15T16:00:27.674Z,100468.16
2018-02-15T16:02:55.226Z,100467.36
2018-02-15T16:05:22.749Z,100471.09
2018-02-15T16:07:50.293Z,100467.87
2018-02-15T16:10:17.831Z,100460.17
2018-02-15T16:12:45.363Z,100461.06
2018-02-15T16:15:12.875Z,100459.38
2018-02-15T16:17:40.417Z,100465.27
2018-02-15T16:20:07.952Z,100463.63
2018-02-15T16:22:35.489Z,100467.87
2018-02-15T16:25:03.072Z,100472.41
2018-02-15T16:27:30.597Z,100473.70
2018-02-15T16:29:58.121Z,100488.05
2018-02-15T16:32:25.654Z,100481.70
2018-02-15T16:34:53.195Z,100485.52
2018-02-15T16:37:20.733Z,100482.67
2018-02-15T16:39:48.260Z,100481.78
2018-02-15T16:42:15.808Z,100480.95
2018-02-15T16:44:43.344Z,100480.48
2018-02-15T16:47:10.857Z,100481.08
2018-02-15T16:49:38.402Z,100481.54
2018-02-15T16:52:05.922Z,100487.00
2018-02-15T16:54:33.461Z,100478.47
2018-02-15T16:57:00.978Z,100482.28
2018-02-15T16:59:28.525Z,100481.88
2018-02-15T17:01:56.074Z,100470.02
2018-02-15T17:04:23.601Z,100473.71
2018-02-15T17:06:51.118Z,100478.00
2018-02-15T17:09:18.648Z,100479.22
2018-02-15T17:11:46.175Z,100476.69
2018-02-15T17:14:13.679Z,100479.69
2018-02-15T17:16:41.306Z,100486.96
2018-02-15T17:19:08.861Z,100496.58
2018-02-15T17:21:36.385Z,100499.86
2018-02-15T17:24:03.950Z,100500.74
2018-02-15T17:26:31.570Z,100507.84
2018-02-15T17:28:59.112Z,100499.57
2018-02-15T17:31:26.651Z,100503.64
2018-02-15T17:33:54.232Z,100505.73
2018-02-15T17:36:21.806Z,100503.68
2018-02-15T17:38:49.347Z,100500.36
2018-02-15T17:41:16.877Z,100496.45
2018-02-15T17:43:44.413Z,100494.48
2018-02-15T17:46:11.948Z,100505.37
2018-02-15T17:48:39.475Z,100515.91
2018-02-15T17:51:06.999Z,100523.95
2018-02-15T17:53:36.501Z,100524.41
2018-02-15T17:56:04.055Z,100526.64
2018-02-15T17:58:31.575Z,100518.24
2018-02-15T18:00:59.120Z,100518.75
2018-02-15T18:03:26.694Z,100518.29
2018-02-15T18:05:54.293Z,100517.53
2018-02-15T18:08:21.921Z,100515.85
2018-02-15T18:10:49.451Z,100514.13
2018-02-15T18:13:16.980Z,100512.02
2018-02-15T18:15:44.496Z,100501.98
2018-02-15T18:18:12.027Z,100506.64
2018-02-15T18:20:39.534Z,100507.94
2018-02-15T18:23:07.061Z,100502.91
2018-02-15T18:25:34.567Z,100502.91
2018-02-15T18:28:02.101Z,100492.90
2018-02-15T18:30:30.883Z,100500.52
2018-02-15T18:32:58.423Z,100497.66
2018-02-15T18:35:26.007Z,100494.70
2018-02-15T18:37:53.553Z,100498.07
2018-02-15T18:40:21.107Z,100496.85
2018-02-15T18:42:48.750Z,100506.23
2018-02-15T18:45:16.422Z,100512.66
2018-02-15T18:47:43.981Z,100520.70
2018-02-15T18:50:11.540Z,100522.92
2018-02-15T18:52:39.073Z,100523.92
2018-02-15T18:55:06.605Z,100530.27
2018-02-15T18:57:34.122Z,100530.84
2018-02-15T19:00:01.660Z,100521.98
2018-02-15T19:02:29.200Z,100523.04
2018-02-15T19:04:56.740Z,100527.74
2018-02-15T19:07:24.306Z,100518.69
2018-02-15T19:09:51.814Z,100524.69
2018-02-15T19:12:19.338Z,100527.77
2018-02-15T19:14:46.885Z,100523.23
2018-02-15T19:17:14.404Z,100524.18
2018-02-15T19:19:41.929Z,100531.44
2018-02-15T19:22:09.464Z,100534.84
2018-02-15T19:24:37.014Z,100536.56
2018-02-15T19:27:04.576Z,100534.91
2018-02-15T19:29:32.165Z,100535.75
2018-02-15T19:31:59.709Z,100529.45
2018-02-15T19:34:27.239Z,100528.23
2018-02-15T19:36:54.801Z,100524.89
2018-02-15T19:39:22.326Z,100532.92
2018-02-15T19:41:49.874Z,100540.94
2018-02-15T19:44:17.383Z,100547.28
2018-02-15T19:46:44.933Z,100545.98
2018-02-15T19:49:12.461Z,100547.25
2018-02-15T19:51:39.989Z,100548.94
2018-02-15T19:54:07.550Z,100548.97
2018-02-15T19:56:35.077Z,100550.66
2018-02-15T19:59:02.591Z,100562.06
2018-02-15T20:01:30.130Z,100566.70
2018-02-15T20:03:57.657Z,100558.76
2018-02-15T20:06:25.245Z,100570.56
2018-02-15T20:08:52.807Z,100566.83
2018-02-15T20:11:20.337Z,100571.44
2018-02-15T20:13:47.894Z,100569.30
2018-02-15T20:16:15.411Z,100565.92
2018-02-15T20:18:42.941Z,100573.64
2018-02-15T20:21:10.464Z,100568.09
2018-02-15T20:23:38.001Z,100569.81
2018-02-15T20:26:11.037Z,100579.57
2018-02-15T20:28:38.614Z,100576.59
2018-02-15T20:31:06.129Z,100584.23
2018-02-15T20:33:33.647Z,100588.36
2018-02-15T20:36:01.217Z,100588.81
2018-02-15T20:38:34.398Z,100590.98
2018-02-15T20:41:01.930Z,100584.23
2018-02-15T20:43:29.963Z,100593.58
2018-02-15T20:45:57.516Z,100593.97
2018-02-15T20:48:25.042Z,100612.58
2018-02-15T20:50:58.106Z,100607.45
2018-02-15T20:53:31.183Z,100620.63
2018-02-15T20:55:58.701Z,100620.63
2018-02-15T20:58:26.226Z,100622.70
2018-02-15T21:00:53.747Z,100625.72
2018-02-15T21:03:21.289Z,100627.37
2018-02-15T21:05:48.809Z,100631.97
2018-02-15T21:08:16.354Z,100639.86
2018-02-15T21:10:44.768Z,100637.81
2018-02-15T21:13:12.298Z,100636.94
2018-02-15T21:15:39.814Z,100639.44
2018-02-15T21:18:07.330Z,100630.94
2018-02-15T21:20:34.911Z,100650.81
2018-02-15T21:23:02.476Z,100655.42
2018-02-15T21:25:30.042Z,100656.27
2018-02-15T21:27:57.563Z,100658.02
2018-02-15T21:30:25.172Z,100663.98
2018-02-15T21:32:52.705Z,100671.16
2018-02-15T21:35:20.237Z,100670.73
2018-02-15T21:37:47.770Z,100661.42
2018-02-15T21:40:15.300Z,100671.19
2018-02-15T21:42:42.873Z,100667.00
2018-02-15T21:45:10.397Z,100674.14
2018-02-15T21:47:37.914Z,100680.82
2018-02-15T21:50:05.468Z,100679.98
2018-02-15T21:52:33.001Z,100683.41
2018-02-15T21:55:00.562Z,100685.95
2018-02-15T21:57:28.092Z,100683.42
2018-02-15T21:59:55.633Z,100686.27
2018-02-15T22:02:23.155Z,100688.69
2018-02-15T22:04:50.667Z,100688.69
2018-02-15T22:07:18.182Z,100684.37
2018-02-15T22:09:45.722Z,100691.32
2018-02-15T22:12:13.286Z,100687.14
2018-02-15T22:14:40.823Z,100697.56
2018-02-15T22:17:08.373Z,100699.10
2018-02-15T22:19:35.906Z,100705.77
2018-02-15T22:22:03.426Z,100701.98
2018-02-15T22:24:30.914Z,100691.52
2018-02-15T22:26:58.431Z,100710.86
2018-02-15T22:29:25.961Z,100718.75
2018-02-15T22:31:53.452Z,100717.18
2018-02-15T22:34:20.980Z,100713.58
2018-02-15T22:36:48.474Z,100720.81
2018-02-15T22:39:15.985Z,100724.22
2018-02-15T22:41:43.472Z,100728.78
2018-02-15T22:44:10.951Z,100733.33
2018-02-15T22:46:38.448Z,100731.10
2018-02-15T22:49:05.930Z,100737.33
2018-02-15T22:51:33.427Z,100744.41
2018-02-15T22:54:00.926Z,100748.96
2018-02-15T22:56:28.412Z,100748.96
2018-02-15T22:58:55.988Z,100755.27
2018-02-15T23:01:23.466Z,100750.56
2018-02-15T23:03:50.982Z,100755.81
2018-02-15T23:06:18.502Z,100758.71
2018-02-15T23:08:45.978Z,100757.41
2018-02-15T23:11:13.471Z,100757.45
2018-02-15T23:13:40.968Z,100759.47
2018-02-15T23:16:08.469Z,100762.37
2018-02-15T23:18:36.005Z,100767.88
2018-02-15T23:21:03.506Z,100773.78
2018-02-15T23:23:31.049Z,100771.58
2018-02-15T23:25:58.531Z,100776.95
2018-02-15T23:28:26.034Z,100776.91
2018-02-15T23:30:53.548Z,100790.02
2018-02-15T23:33:21.059Z,100793.37
2018-02-15T23:35:48.572Z,100791.66
2018-02-15T23:38:16.061Z,100792.44
2018-02-15T23:40:43.574Z,100798.75
2018-02-15T23:43:11.092Z,100801.65
2018-02-15T23:45:38.587Z,100806.28
2018-02-15T23:48:06.104Z,100811.33
2018-02-15T23:50:33.605Z,100813.34
2018-02-15T23:53:01.135Z,100817.13
2018-02-15T23:55:28.641Z,100823.16
2018-02-15T23:57:56.140Z,100817.31
